This is the latest recevied weather packets stored in our database for station/object LA3HX. If no packets are shown the sender has not sent any weather packets the latest 10 day(s).
| Time | Temp. | Humidity | Pressure | Rain* | Wind** | Luminosity | Snow |
|---|---|---|---|---|---|---|---|
| 1777526106 | 13.89° C | 51% | 1005.6 hPa | 0 mm | - | - | - |
| 1777524607 | 12.22° C | 71% | 1005.5 hPa | 0 mm | - | - | - |
| 1777523706 | 7.22° C | 80% | 1005.4 hPa | 0 mm | - | - | - |
| 1777522806 | 7.22° C | 80% | 1005.6 hPa | 0 mm | - | - | - |
| 1777522207 | 7.22° C | 80% | 1005.5 hPa | 0 mm | - | - | - |
| 1777521606 | 7.22° C | 80% | 1005.4 hPa | 0 mm | - | - | - |
| 1777521006 | 7.22° C | 80% | 1005.4 hPa | 0 mm | - | - | - |
| 1777518306 | 7.22° C | 80% | 1005 hPa | 0 mm | - | - | - |
| 1777517107 | 7.22° C | 79% | 1005.3 hPa | 0 mm | - | - | - |
| 1777516506 | 7.22° C | 78% | 1005.4 hPa | 0 mm | - | - | - |
| 1777515906 | 7.78° C | 72% | 1005.3 hPa | 0 mm | - | - | - |
| 1777515607 | 7.78° C | 72% | 1005.5 hPa | 0 mm | - | - | - |
| 1777514406 | 7.78° C | 71% | 1005.3 hPa | 0 mm | - | - | - |
| 1777514106 | 7.78° C | 71% | 1005.3 hPa | 0 mm | - | - | - |
| 1777512607 | 8.33° C | 71% | 1005.1 hPa | 0 mm | - | - | - |
| 1777511106 | 8.33° C | 70% | 1005.4 hPa | 0 mm | - | - | - |
| 1777509007 | 8.33° C | 70% | 1005.2 hPa | 0 mm | - | - | - |
| 1777508406 | 8.33° C | 70% | 1005.2 hPa | 0 mm | - | - | - |
| 1777502706 | 9.44° C | 64% | 1005.2 hPa | 0 mm | - | - | - |
| 1777501207 | 9.44° C | 63% | 1005.4 hPa | 0 mm | - | - | - |
| 1777498807 | 10° C | 61% | 1005.3 hPa | 0 mm | - | - | - |
| 1777498207 | 10.56° C | 60% | 1005.1 hPa | 0 mm | - | - | - |
| 1777496407 | 10.56° C | 60% | 1005.1 hPa | 0 mm | - | - | - |
| 1777495807 | 10.56° C | 60% | 1005 hPa | 0 mm | - | - | - |
| 1777495507 | 10.56° C | 59% | 1004.8 hPa | 0 mm | - | - | - |
* Rain latest hour (hover to see other rain measurements)
** Current wind speed in m/s (hover to see current wind gust speed)